Latest Weather Observations for Carnarvon

IDW60801

Issued at 10:35 pm WST Saturday 19 April 2014 (issued every 30 minutes, with the page automatically refreshed every 10 minutes)

About weather observations | Map of weather stations | Latest weather observations for WA | Other Formats
Station Details ID: 006011 Name: CARNARVON AIRPORT Lat: -24.89 Lon: 113.67 Height: 4.0 m
Data from the previous 72 hours. | See also: Recent months at Carnarvon
Date/Time
WST
Temp
°C
App
Temp
°C
Dew
Point
Rel
Hum
%
Delta-T
°C
Wind Press
QNH
hPa
Press
MSL
hPa
Rain
since 9 am
mm
Dir
 
Spd
km/h
Gust
km/h
Spd
kts
Gust
kts
19/10:30pm 22.7 21.3 19.6 82 2.0 S 26 33 14 18 1014.1 - 0.0
19/10:00pm 22.8 21.6 19.2 80 2.3 S 24 30 13 16 1014.3 - 0.0
19/09:30pm 22.9 22.4 19.0 78 2.5 S 20 24 11 13 1014.6 - 0.0
19/09:00pm 23.2 22.9 19.1 78 2.6 S 19 24 10 13 1014.5 1014.5 0.0
19/08:30pm 23.6 23.2 19.4 77 2.7 S 20 24 11 13 1014.5 - 0.0
19/08:00pm 24.2 23.7 19.9 77 2.8 S 22 28 12 15 1014.2 - 0.0
19/07:30pm 24.4 23.8 20.4 78 2.6 S 24 32 13 17 1014.1 - 0.0
19/07:00pm 24.6 24.0 20.6 78 2.6 SSW 24 30 13 16 1014.0 - 0.0
19/06:30pm 24.7 25.0 20.7 78 2.6 SSW 20 26 11 14 1013.5 - 0.0
19/06:00pm 25.0 25.0 20.9 78 2.7 S 22 28 12 15 1013.2 1013.2 0.0
19/05:30pm 25.6 25.6 20.9 75 3.1 SSW 22 28 12 15 1013.1 - 0.0
19/05:00pm 26.3 26.6 20.8 71 3.6 SSW 20 26 11 14 1012.9 - 0.0
19/04:30pm 26.4 26.8 20.9 72 3.6 SSW 20 26 11 14 1013.0 - 0.0
19/04:00pm 26.5 26.6 21.2 72 3.5 SSW 22 26 12 14 1013.1 - 0.0
19/03:30pm 26.8 26.9 21.1 71 3.8 SSW 22 28 12 15 1013.1 - 0.0
19/03:00pm 26.9 26.4 20.7 69 4.1 SSW 24 30 13 16 1013.1 1013.1 0.0
19/02:30pm 27.1 26.5 20.4 66 4.4 SSW 24 32 13 17 1013.0 - 0.0
19/02:00pm 27.3 26.4 19.8 63 4.9 SSW 24 30 13 16 1013.2 - 0.0
19/01:30pm 26.9 25.5 19.7 64 4.7 SSW 26 32 14 17 1013.5 - 0.0
19/01:00pm 27.2 25.4 19.6 63 4.9 SSW 28 33 15 18 1013.7 - 0.0
19/12:30pm 27.1 25.4 19.7 64 4.8 SSW 28 33 15 18 1014.2 - 0.0
19/12:00pm 27.1 25.3 19.5 63 4.9 S 28 33 15 18 1014.7 1014.7 0.0
19/11:30am 27.0 25.5 20.3 66 4.4 S 28 33 15 18 1014.9 - 0.0
19/11:00am 27.3 25.7 19.2 61 5.2 S 26 35 14 19 1015.2 - 0.0
19/10:30am 26.2 25.3 20.7 71 3.6 S 26 32 14 17 1015.5 - 0.0
19/10:00am 26.1 24.9 20.1 69 3.9 S 26 32 14 17 1015.8 - 0.0
19/09:30am 25.4 24.2 20.0 72 3.5 S 26 33 14 18 1015.9 - 0.0
19/09:00am 24.7 23.1 20.1 75 3.0 S 28 35 15 19 1015.8 1015.8 0.0
19/08:30am 24.3 23.0 20.6 80 2.4 S 28 35 15 19 1015.7 - 0.0
19/08:00am 23.3 22.7 20.5 84 1.8 S 24 30 13 16 1015.5 - 0.0
19/07:30am 22.6 22.0 20.4 87 1.4 S 24 30 13 16 1015.4 - 0.0
19/07:00am 22.0 22.0 20.1 89 1.2 S 20 26 11 14 1015.2 - 0.0
19/06:30am 22.0 22.3 20.5 91 1.0 S 19 22 10 12 1014.9 - 0.0
19/06:00am 22.1 22.4 20.4 90 1.1 S 19 22 10 12 1014.7 1014.7 0.0
19/05:30am 22.2 22.5 20.3 89 1.2 S 19 22 10 12 1014.7 - 0.0
19/05:00am 22.0 22.5 20.1 89 1.2 S 17 20 9 11 1014.7 - 0.0
19/04:30am 22.0 22.5 20.0 88 1.3 S 17 20 9 11 1014.7 - 0.0
19/04:00am 22.2 22.8 20.2 88 1.3 S 17 20 9 11 1014.8 - 0.0
19/03:30am 22.7 22.7 20.2 86 1.6 S 20 26 11 14 1015.0 - 0.0
19/03:00am 22.8 22.8 20.2 85 1.7 S 20 28 11 15 1015.2 1015.2 0.0
19/02:30am 22.9 22.8 19.9 83 1.9 S 20 24 11 13 1015.4 - 0.0
19/02:00am 23.2 22.5 19.4 79 2.4 S 22 26 12 14 1015.4 - 0.0
19/01:30am 23.1 23.4 19.5 80 2.3 S 17 22 9 12 1015.5 - 0.0
19/01:00am 22.9 23.2 19.5 81 2.2 S 17 20 9 11 1015.5 - 0.0
19/12:30am 22.7 23.3 19.4 81 2.1 SSW 15 20 8 11 1015.7 - 0.0
19/12:00am 21.9 22.5 18.7 82 2.0 SSE 13 15 7 8 1015.8 1015.8 0.0
 
Date/Time
WST
Temp
°C
App
Temp
°C
Dew
Point
Rel
Hum
%
Delta-T
°C
Wind Press
QNH
hPa
Press
MSL
hPa
Rain
since 9 am
mm
Dir
 
Spd
km/h
Gust
km/h
Spd
kts
Gust
kts
18/11:30pm 22.6 22.7 19.1 80 2.2 S 17 19 9 10 1015.8 - 0.0
18/11:00pm 22.5 22.9 19.0 80 2.2 S 15 17 8 9 1016.0 - 0.0
18/10:30pm 22.3 23.1 19.1 82 2.0 S 13 17 7 9 1016.1 - 0.0
18/10:00pm 22.9 23.9 19.4 80 2.2 S 13 17 7 9 1016.1 - 0.0
18/09:30pm 23.9 23.9 19.7 77 2.7 S 19 22 10 12 1016.1 - 0.0
18/09:00pm 24.3 24.5 20.1 77 2.7 S 19 22 10 12 1015.9 1015.9 0.0
18/08:30pm 24.6 24.5 19.5 73 3.3 S 19 22 10 12 1015.5 - 0.0
18/08:00pm 24.7 25.0 19.7 73 3.2 SSW 17 19 9 10 1015.2 - 0.0
18/07:30pm 25.0 25.5 20.1 74 3.2 S 17 22 9 12 1014.9 - 0.0
18/07:00pm 25.3 25.7 20.7 75 3.0 SSW 19 22 10 12 1014.7 - 0.0
18/06:30pm 25.3 25.6 19.6 70 3.7 SW 17 20 9 11 1014.3 - 0.0
18/06:00pm 25.9 26.0 19.9 69 3.9 SW 19 24 10 13 1014.0 1014.0 0.0
18/05:30pm 27.1 25.6 17.7 56 5.9 SW 22 28 12 15 1013.6 - 0.0
18/05:00pm 28.0 26.5 16.8 50 7.0 SW 20 26 11 14 1013.3 - 0.0
18/04:30pm 28.2 27.1 17.4 52 6.8 SSW 19 24 10 13 1013.2 - 0.0
18/04:00pm 29.7 27.2 14.1 38 9.4 SW 20 26 11 14 1013.2 - 0.0
18/03:30pm 29.2 28.0 17.5 49 7.4 SW 20 26 11 14 1013.1 - 0.0
18/03:00pm 29.5 26.5 13.8 38 9.4 SW 22 26 12 14 1013.1 1013.1 0.0
18/02:30pm 29.4 27.3 16.2 44 8.2 SW 22 28 12 15 1013.0 - 0.0
18/02:00pm 28.5 26.6 17.6 51 6.9 SSW 24 30 13 16 1013.1 - 0.0
18/01:30pm 28.1 26.4 18.2 55 6.3 SSW 24 28 13 15 1013.3 - 0.0
18/01:00pm 28.4 26.0 16.5 48 7.4 SSW 24 28 13 15 1013.7 - 0.0
18/12:30pm 28.4 25.8 13.8 40 8.7 SSW 20 24 11 13 1014.2 - 0.0
18/12:00pm 28.6 25.4 11.8 35 9.7 SSW 20 24 11 13 1014.5 1014.5 0.0
18/11:30am 28.4 25.4 11.8 35 9.6 SSW 19 22 10 12 1014.8 - 0.0
18/11:00am 28.3 25.9 11.4 35 9.7 SSW 15 19 8 10 1015.0 - 0.0
18/10:30am 31.2 27.9 2.5 16 14.4 S 9 17 5 9 1015.0 - 0.0
18/10:00am 30.5 26.3 -0.9 13 14.8 SE 11 15 6 8 1015.1 - 0.0
18/09:30am 29.3 25.2 0.0 15 13.9 ESE 11 17 6 9 1015.2 - 0.0
18/09:00am 27.4 23.2 1.7 19 12.4 SE 13 15 7 8 1015.3 1015.3 0.0
18/08:30am 25.2 21.8 5.9 29 9.9 SE 13 17 7 9 1015.4 - 0.0
18/08:00am 22.7 20.1 9.3 42 7.2 SSE 13 17 7 9 1015.4 - 0.0
18/07:30am 20.0 17.9 12.5 62 4.2 SSE 15 19 8 10 1015.1 - 0.0
18/07:00am 17.1 15.3 13.2 78 2.2 SSE 15 17 8 9 1014.8 - 0.0
18/06:30am 17.5 16.2 13.6 78 2.2 SSE 13 17 7 9 1014.6 - 0.0
18/06:00am 17.8 16.7 14.3 80 2.0 SSE 13 13 7 7 1014.5 1014.5 0.0
18/05:30am 18.8 17.5 14.7 77 2.4 SSE 15 17 8 9 1014.5 - 0.0
18/05:00am 19.6 18.9 15.5 77 2.4 SSE 13 17 7 9 1014.2 - 0.0
18/04:30am 20.1 19.5 16.6 80 2.1 SSE 15 19 8 10 1014.0 - 0.0
18/04:00am 20.3 20.2 17.9 86 1.5 SSE 15 17 8 9 1014.0 - 0.0
18/03:30am 20.9 21.9 18.7 87 1.4 S 11 11 6 6 1014.1 - 0.0
18/03:00am 22.4 23.0 19.4 83 1.9 S 15 19 8 10 1014.3 1014.3 0.0
18/02:30am 22.8 22.8 19.0 79 2.4 S 17 22 9 12 1014.6 - 0.0
18/02:00am 22.9 23.1 19.3 80 2.3 S 17 22 9 12 1014.8 - 0.0
18/01:30am 22.8 23.6 19.8 83 1.9 S 15 19 8 10 1014.9 - 0.0
18/01:00am 23.0 22.8 19.7 82 2.1 S 20 24 11 13 1015.2 - 0.0
18/12:30am 23.2 22.8 19.4 79 2.4 S 20 26 11 14 1015.3 - 0.0
18/12:00am 23.1 22.9 19.3 79 2.4 S 19 24 10 13 1015.5 1015.5 0.0
 
Date/Time
WST
Temp
°C
App
Temp
°C
Dew
Point
Rel
Hum
%
Delta-T
°C
Wind Press
QNH
hPa
Press
MSL
hPa
Rain
since 9 am
mm
Dir
 
Spd
km/h
Gust
km/h
Spd
kts
Gust
kts
17/11:30pm 23.1 22.8 19.2 79 2.5 S 19 24 10 13 1015.8 - 0.0
17/11:00pm 22.5 23.4 19.2 81 2.1 SSE 13 17 7 9 1016.1 - 0.0
17/10:30pm 23.0 23.2 19.4 80 2.3 S 17 22 9 12 1016.3 - 0.0
17/10:00pm 23.3 23.1 19.7 80 2.3 S 20 26 11 14 1016.4 - 0.0
17/09:30pm 23.8 23.4 20.1 80 2.4 S 22 26 12 14 1016.2 - 0.0
17/09:00pm 24.0 24.2 20.1 79 2.5 S 19 24 10 13 1016.2 1016.2 0.0
17/08:30pm 24.4 23.6 20.1 77 2.8 S 24 32 13 17 1015.9 - 0.0
17/08:00pm 24.7 25.7 21.8 84 1.9 S 19 24 10 13 1015.6 - 0.0
17/07:30pm 25.0 25.9 22.0 83 2.0 S 20 28 11 15 1015.2 - 0.0
17/07:00pm 25.2 26.1 21.9 82 2.2 S 20 28 11 15 1015.0 - 0.0
17/06:30pm 25.5 26.3 21.7 79 2.5 S 20 26 11 14 1014.6 - 0.0
17/06:00pm 26.0 26.2 21.3 75 3.1 SSW 22 28 12 15 1014.1 1014.1 0.0
17/05:30pm 26.8 26.1 20.2 67 4.3 S 24 30 13 16 1013.9 - 0.0
17/05:00pm 27.8 26.3 17.8 54 6.3 SSW 22 30 12 16 1013.8 - 0.0
17/04:30pm 27.9 26.5 18.7 57 5.9 SSW 24 30 13 16 1013.7 - 0.0
17/04:00pm 28.3 26.4 18.6 55 6.2 SSW 26 33 14 18 1013.7 - 0.0
17/03:30pm 28.3 26.5 18.8 56 6.1 SSW 26 32 14 17 1013.7 - 0.0
17/03:00pm 28.6 26.8 18.8 55 6.3 SSW 26 33 14 18 1013.8 1013.8 0.0
17/02:30pm 28.2 25.8 18.3 55 6.3 SSW 28 35 15 19 1013.8 - 0.0
17/02:00pm 27.2 25.0 19.5 62 5.0 SSW 30 39 16 21 1014.0 - 0.0
17/01:30pm 27.0 25.0 19.9 65 4.6 SSW 30 35 16 19 1014.1 - 0.0
17/01:00pm 27.2 24.6 19.6 63 4.9 S 32 39 17 21 1014.4 - 0.0
17/12:30pm 27.3 24.9 19.9 64 4.8 S 32 39 17 21 1014.8 - 0.0
17/12:00pm 27.6 25.3 19.4 61 5.3 SSW 30 37 16 20 1015.2 1015.2 0.0
17/11:30am 27.4 24.4 17.7 55 6.1 SSW 30 35 16 19 1015.5 - 0.0
17/11:00am 28.4 26.8 16.5 48 7.4 SSW 20 24 11 13 1015.9 - 0.0
17/10:30am 29.4 27.1 14.1 39 9.2 S 19 24 10 13 1016.1 - 0.0
17/10:00am 29.0 24.8 9.7 30 10.8 SSE 22 30 12 16 1016.3 - 0.0
17/09:30am 27.3 23.4 10.8 35 9.3 SSE 22 30 12 16 1016.4 - 0.0
17/09:00am 26.2 23.3 12.8 43 7.8 SSE 20 28 11 15 1016.3 1016.3 0.0
17/08:30am 24.9 21.6 14.0 50 6.4 SE 24 33 13 18 1016.1 - 0.0
17/08:00am 23.3 20.8 15.1 60 4.9 SSE 22 28 12 15 1016.0 - 0.0
17/07:30am 22.0 20.2 16.9 73 3.1 SSE 22 30 12 16 1015.8 - 0.0
17/07:00am 21.2 20.2 17.5 79 2.3 SSE 19 22 10 12 1015.5 - 0.0
17/06:30am 21.1 20.6 17.7 81 2.1 SSE 17 24 9 13 1015.3 - 0.0
17/06:00am 21.0 21.1 18.3 84 1.7 SE 15 20 8 11 1015.4 1015.4 0.0
17/05:30am 21.5 21.3 18.5 83 1.9 SSE 17 20 9 11 1015.4 - 0.0
17/05:00am 21.4 21.6 18.5 83 1.8 SSE 15 20 8 11 1015.2 - 0.0
17/04:30am 21.1 21.3 18.5 85 1.6 SSE 15 19 8 10 1015.1 - 0.0
17/04:00am 21.1 21.3 18.5 85 1.6 SSE 15 17 8 9 1014.9 - 0.0
17/03:30am 21.5 21.8 18.8 84 1.7 SSE 15 19 8 10 1014.9 - 0.0
17/03:00am 21.1 22.0 18.4 84 1.7 SSE 11 15 6 8 1015.2 1015.2 0.0
17/02:30am 20.6 20.9 17.8 84 1.7 SSE 13 15 7 8 1015.3 - 0.0
17/02:00am 21.0 21.8 18.1 83 1.8 SSE 11 15 6 8 1015.4 - 0.0
17/01:30am 21.8 22.0 18.6 82 2.0 S 15 19 8 10 1015.5 - 0.0
17/01:00am 21.3 21.8 18.4 83 1.8 S 13 13 7 7 1015.7 - 0.0
17/12:30am 21.8 22.4 18.6 82 2.0 S 13 15 7 8 1015.6 - 0.0
17/12:00am 22.4 22.8 18.9 80 2.2 S 15 20 8 11 1015.7 1015.7 0.0
 
Date/Time
WST
Temp
°C
App
Temp
°C
Dew
Point
Rel
Hum
%
Delta-T
°C
Wind Press
QNH
hPa
Press
MSL
hPa
Rain
since 9 am
mm
Dir
 
Spd
km/h
Gust
km/h
Spd
kts
Gust
kts
16/11:30pm 22.3 23.2 19.3 83 1.9 S 13 15 7 8 1015.9 - 0.0
16/11:00pm 23.0 23.7 19.7 82 2.1 SSE 15 19 8 10 1016.1 - 0.0

Other Formats:

Comma delimited format used in spreadsheet applications
http://www.bom.gov.au/fwo/IDW60801/IDW60801.94300.axf

JavaScript Object Notation format (JSON) in row-major order
http://www.bom.gov.au/fwo/IDW60801/IDW60801.94300.json